sensor_id;sensor_type;location;lat;lon;timestamp;P1;durP1;ratioP1;P2;durP2;ratioP2
18104;SDS011;9179;50.968;3.134;2023-09-08T00:00:19;19.55;;;17.77;;
18104;SDS011;9179;50.968;3.134;2023-09-08T00:02:46;19.08;;;17.38;;
18104;SDS011;9179;50.968;3.134;2023-09-08T00:05:13;18.75;;;17.05;;
18104;SDS011;9179;50.968;3.134;2023-09-08T00:07:40;19.35;;;17.73;;
18104;SDS011;9179;50.968;3.134;2023-09-08T00:10:08;17.85;;;16.20;;
18104;SDS011;9179;50.968;3.134;2023-09-08T00:12:37;18.88;;;16.90;;
18104;SDS011;9179;50.968;3.134;2023-09-08T00:15:05;18.05;;;16.35;;
18104;SDS011;9179;50.968;3.134;2023-09-08T00:17:33;20.48;;;18.52;;
18104;SDS011;9179;50.968;3.134;2023-09-08T00:20:01;19.90;;;18.00;;
18104;SDS011;9179;50.968;3.134;2023-09-08T00:22:31;18.67;;;16.77;;
18104;SDS011;9179;50.968;3.134;2023-09-08T00:24:57;19.15;;;17.42;;
18104;SDS011;9179;50.968;3.134;2023-09-08T00:27:24;21.00;;;18.52;;
18104;SDS011;9179;50.968;3.134;2023-09-08T00:29:52;19.60;;;17.73;;
18104;SDS011;9179;50.968;3.134;2023-09-08T00:32:19;18.70;;;17.05;;
18104;SDS011;9179;50.968;3.134;2023-09-08T00:34:46;20.33;;;18.52;;
18104;SDS011;9179;50.968;3.134;2023-09-08T00:37:13;20.52;;;18.45;;
18104;SDS011;9179;50.968;3.134;2023-09-08T00:39:40;19.52;;;17.73;;
18104;SDS011;9179;50.968;3.134;2023-09-08T00:42:07;20.25;;;18.42;;
18104;SDS011;9179;50.968;3.134;2023-09-08T00:44:34;20.27;;;18.25;;
18104;SDS011;9179;50.968;3.134;2023-09-08T00:47:02;20.80;;;18.90;;
18104;SDS011;9179;50.968;3.134;2023-09-08T00:49:29;19.33;;;17.45;;
18104;SDS011;9179;50.968;3.134;2023-09-08T00:51:56;20.30;;;18.50;;
18104;SDS011;9179;50.968;3.134;2023-09-08T00:54:23;22.17;;;20.30;;
18104;SDS011;9179;50.968;3.134;2023-09-08T00:56:50;20.90;;;19.10;;
18104;SDS011;9179;50.968;3.134;2023-09-08T00:59:21;22.80;;;20.60;;
18104;SDS011;9179;50.968;3.134;2023-09-08T01:01:49;21.52;;;19.70;;
18104;SDS011;9179;50.968;3.134;2023-09-08T01:04:18;21.10;;;19.10;;
18104;SDS011;9179;50.968;3.134;2023-09-08T01:06:45;18.67;;;16.90;;
18104;SDS011;9179;50.968;3.134;2023-09-08T01:09:12;19.88;;;18.05;;
18104;SDS011;9179;50.968;3.134;2023-09-08T01:11:39;21.77;;;19.70;;
18104;SDS011;9179;50.968;3.134;2023-09-08T01:14:07;22.75;;;20.65;;
18104;SDS011;9179;50.968;3.134;2023-09-08T01:16:37;19.02;;;17.35;;
18104;SDS011;9179;50.968;3.134;2023-09-08T01:19:05;21.13;;;19.02;;
18104;SDS011;9179;50.968;3.134;2023-09-08T01:24:43;21.83;;;19.88;;
18104;SDS011;9179;50.968;3.134;2023-09-08T01:27:48;21.33;;;19.33;;
18104;SDS011;9179;50.968;3.134;2023-09-08T01:30:17;21.90;;;19.80;;
18104;SDS011;9179;50.968;3.134;2023-09-08T01:32:44;22.25;;;20.15;;
18104;SDS011;9179;50.968;3.134;2023-09-08T01:35:12;22.73;;;20.75;;
18104;SDS011;9179;50.968;3.134;2023-09-08T01:37:40;19.60;;;17.83;;
18104;SDS011;9179;50.968;3.134;2023-09-08T01:40:08;21.52;;;19.58;;
18104;SDS011;9179;50.968;3.134;2023-09-08T01:42:36;23.40;;;21.17;;
18104;SDS011;9179;50.968;3.134;2023-09-08T01:45:05;20.98;;;19.08;;
18104;SDS011;9179;50.968;3.134;2023-09-08T01:47:33;23.10;;;20.95;;
18104;SDS011;9179;50.968;3.134;2023-09-08T01:50:00;23.20;;;20.98;;
18104;SDS011;9179;50.968;3.134;2023-09-08T01:52:27;21.55;;;19.55;;
18104;SDS011;9179;50.968;3.134;2023-09-08T01:54:54;23.52;;;21.20;;
18104;SDS011;9179;50.968;3.134;2023-09-08T01:57:21;23.83;;;21.40;;
18104;SDS011;9179;50.968;3.134;2023-09-08T01:59:48;21.73;;;19.77;;
18104;SDS011;9179;50.968;3.134;2023-09-08T02:02:16;24.15;;;21.50;;
18104;SDS011;9179;50.968;3.134;2023-09-08T02:04:43;21.70;;;19.80;;
18104;SDS011;9179;50.968;3.134;2023-09-08T02:07:10;26.95;;;24.50;;
18104;SDS011;9179;50.968;3.134;2023-09-08T02:09:37;24.63;;;22.17;;
18104;SDS011;9179;50.968;3.134;2023-09-08T02:12:04;24.05;;;21.85;;
18104;SDS011;9179;50.968;3.134;2023-09-08T02:14:31;22.58;;;20.65;;
18104;SDS011;9179;50.968;3.134;2023-09-08T02:16:58;22.80;;;20.55;;
18104;SDS011;9179;50.968;3.134;2023-09-08T02:19:27;24.42;;;22.23;;
18104;SDS011;9179;50.968;3.134;2023-09-08T02:21:53;25.02;;;22.55;;
18104;SDS011;9179;50.968;3.134;2023-09-08T02:24:20;25.73;;;23.15;;
18104;SDS011;9179;50.968;3.134;2023-09-08T02:26:47;23.75;;;21.58;;
18104;SDS011;9179;50.968;3.134;2023-09-08T02:29:14;24.30;;;22.13;;
18104;SDS011;9179;50.968;3.134;2023-09-08T02:31:41;23.63;;;21.50;;
18104;SDS011;9179;50.968;3.134;2023-09-08T02:34:08;24.90;;;22.42;;
18104;SDS011;9179;50.968;3.134;2023-09-08T02:36:38;23.50;;;21.30;;
18104;SDS011;9179;50.968;3.134;2023-09-08T02:39:05;23.20;;;20.98;;
18104;SDS011;9179;50.968;3.134;2023-09-08T02:41:32;24.75;;;22.45;;
18104;SDS011;9179;50.968;3.134;2023-09-08T02:43:59;24.60;;;22.30;;
18104;SDS011;9179;50.968;3.134;2023-09-08T02:46:26;23.60;;;21.40;;
18104;SDS011;9179;50.968;3.134;2023-09-08T02:48:53;23.98;;;21.75;;
18104;SDS011;9179;50.968;3.134;2023-09-08T02:51:20;23.58;;;21.13;;
18104;SDS011;9179;50.968;3.134;2023-09-08T02:53:48;23.25;;;21.15;;
18104;SDS011;9179;50.968;3.134;2023-09-08T02:56:15;24.83;;;22.52;;
18104;SDS011;9179;50.968;3.134;2023-09-08T02:58:42;23.63;;;21.42;;
18104;SDS011;9179;50.968;3.134;2023-09-08T03:01:10;23.08;;;20.83;;
18104;SDS011;9179;50.968;3.134;2023-09-08T03:03:39;23.95;;;21.52;;
18104;SDS011;9179;50.968;3.134;2023-09-08T03:06:06;23.08;;;20.80;;
18104;SDS011;9179;50.968;3.134;2023-09-08T03:08:33;23.65;;;21.40;;
18104;SDS011;9179;50.968;3.134;2023-09-08T03:11:03;25.08;;;22.75;;
18104;SDS011;9179;50.968;3.134;2023-09-08T03:13:30;22.33;;;20.02;;
18104;SDS011;9179;50.968;3.134;2023-09-08T03:16:01;23.55;;;21.15;;
18104;SDS011;9179;50.968;3.134;2023-09-08T03:18:29;23.25;;;21.08;;
18104;SDS011;9179;50.968;3.134;2023-09-08T03:20:57;22.98;;;20.83;;
18104;SDS011;9179;50.968;3.134;2023-09-08T03:23:24;22.17;;;20.00;;
18104;SDS011;9179;50.968;3.134;2023-09-08T03:25:51;23.63;;;20.52;;
18104;SDS011;9179;50.968;3.134;2023-09-08T03:28:19;25.52;;;22.92;;
18104;SDS011;9179;50.968;3.134;2023-09-08T03:30:46;25.20;;;22.92;;
18104;SDS011;9179;50.968;3.134;2023-09-08T03:33:13;23.27;;;21.05;;
18104;SDS011;9179;50.968;3.134;2023-09-08T03:35:40;22.95;;;20.75;;
18104;SDS011;9179;50.968;3.134;2023-09-08T03:38:07;24.08;;;21.58;;
18104;SDS011;9179;50.968;3.134;2023-09-08T03:40:33;23.05;;;20.90;;
18104;SDS011;9179;50.968;3.134;2023-09-08T03:43:01;23.48;;;21.35;;
18104;SDS011;9179;50.968;3.134;2023-09-08T03:45:29;22.88;;;20.67;;
18104;SDS011;9179;50.968;3.134;2023-09-08T03:47:56;23.92;;;21.73;;
18104;SDS011;9179;50.968;3.134;2023-09-08T03:50:23;21.77;;;19.70;;
18104;SDS011;9179;50.968;3.134;2023-09-08T03:52:50;23.95;;;21.70;;
18104;SDS011;9179;50.968;3.134;2023-09-08T03:55:18;23.23;;;20.00;;
18104;SDS011;9179;50.968;3.134;2023-09-08T03:57:45;22.48;;;20.48;;
18104;SDS011;9179;50.968;3.134;2023-09-08T04:00:13;22.80;;;20.63;;
18104;SDS011;9179;50.968;3.134;2023-09-08T04:02:45;22.38;;;20.27;;
18104;SDS011;9179;50.968;3.134;2023-09-08T04:05:12;24.17;;;21.75;;
18104;SDS011;9179;50.968;3.134;2023-09-08T04:07:39;22.98;;;20.77;;
18104;SDS011;9179;50.968;3.134;2023-09-08T04:10:07;21.73;;;19.52;;
18104;SDS011;9179;50.968;3.134;2023-09-08T04:12:34;23.42;;;21.02;;
18104;SDS011;9179;50.968;3.134;2023-09-08T04:15:01;22.10;;;20.15;;
18104;SDS011;9179;50.968;3.134;2023-09-08T04:17:28;24.08;;;21.67;;
18104;SDS011;9179;50.968;3.134;2023-09-08T04:19:57;21.50;;;19.45;;
18104;SDS011;9179;50.968;3.134;2023-09-08T04:22:23;22.67;;;20.42;;
18104;SDS011;9179;50.968;3.134;2023-09-08T04:24:50;21.73;;;19.67;;
18104;SDS011;9179;50.968;3.134;2023-09-08T04:27:18;22.63;;;20.67;;
18104;SDS011;9179;50.968;3.134;2023-09-08T04:29:45;23.48;;;21.48;;
18104;SDS011;9179;50.968;3.134;2023-09-08T04:32:12;23.25;;;21.05;;
18104;SDS011;9179;50.968;3.134;2023-09-08T04:34:39;21.40;;;19.30;;
18104;SDS011;9179;50.968;3.134;2023-09-08T04:37:08;22.25;;;20.10;;
18104;SDS011;9179;50.968;3.134;2023-09-08T04:39:35;24.17;;;21.70;;
18104;SDS011;9179;50.968;3.134;2023-09-08T04:42:03;22.55;;;20.33;;
18104;SDS011;9179;50.968;3.134;2023-09-08T04:44:30;23.33;;;20.98;;
18104;SDS011;9179;50.968;3.134;2023-09-08T04:46:57;22.10;;;20.10;;
18104;SDS011;9179;50.968;3.134;2023-09-08T04:49:24;21.52;;;19.40;;
18104;SDS011;9179;50.968;3.134;2023-09-08T04:51:51;22.02;;;20.00;;
18104;SDS011;9179;50.968;3.134;2023-09-08T04:54:20;22.02;;;19.88;;
18104;SDS011;9179;50.968;3.134;2023-09-08T04:56:49;25.83;;;23.35;;
18104;SDS011;9179;50.968;3.134;2023-09-08T04:59:17;23.80;;;21.75;;
18104;SDS011;9179;50.968;3.134;2023-09-08T05:01:43;23.15;;;20.92;;
18104;SDS011;9179;50.968;3.134;2023-09-08T05:04:10;22.02;;;19.75;;
18104;SDS011;9179;50.968;3.134;2023-09-08T05:06:38;22.63;;;20.42;;
18104;SDS011;9179;50.968;3.134;2023-09-08T05:09:04;23.02;;;20.92;;
18104;SDS011;9179;50.968;3.134;2023-09-08T05:11:33;24.65;;;22.25;;
18104;SDS011;9179;50.968;3.134;2023-09-08T05:14:00;24.38;;;22.10;;
18104;SDS011;9179;50.968;3.134;2023-09-08T05:16:28;23.77;;;21.58;;
18104;SDS011;9179;50.968;3.134;2023-09-08T05:19:04;22.98;;;20.80;;
18104;SDS011;9179;50.968;3.134;2023-09-08T05:21:31;23.15;;;20.95;;
18104;SDS011;9179;50.968;3.134;2023-09-08T05:23:58;24.27;;;21.83;;
18104;SDS011;9179;50.968;3.134;2023-09-08T05:26:25;21.77;;;19.65;;
18104;SDS011;9179;50.968;3.134;2023-09-08T05:28:53;22.70;;;20.55;;
18104;SDS011;9179;50.968;3.134;2023-09-08T05:31:20;21.88;;;19.85;;
18104;SDS011;9179;50.968;3.134;2023-09-08T05:33:47;23.70;;;21.52;;
18104;SDS011;9179;50.968;3.134;2023-09-08T05:36:14;22.58;;;20.50;;
18104;SDS011;9179;50.968;3.134;2023-09-08T05:38:41;22.60;;;20.42;;
18104;SDS011;9179;50.968;3.134;2023-09-08T05:41:08;22.85;;;20.15;;
18104;SDS011;9179;50.968;3.134;2023-09-08T05:43:35;20.95;;;18.80;;
18104;SDS011;9179;50.968;3.134;2023-09-08T05:46:03;22.27;;;20.17;;
18104;SDS011;9179;50.968;3.134;2023-09-08T05:48:30;22.45;;;20.15;;
18104;SDS011;9179;50.968;3.134;2023-09-08T05:50:57;22.00;;;19.98;;
18104;SDS011;9179;50.968;3.134;2023-09-08T05:53:24;21.02;;;19.15;;
18104;SDS011;9179;50.968;3.134;2023-09-08T05:55:51;22.80;;;20.70;;
18104;SDS011;9179;50.968;3.134;2023-09-08T05:58:18;21.48;;;19.35;;
18104;SDS011;9179;50.968;3.134;2023-09-08T06:00:45;22.02;;;20.00;;
18104;SDS011;9179;50.968;3.134;2023-09-08T06:03:13;20.73;;;18.83;;
18104;SDS011;9179;50.968;3.134;2023-09-08T06:05:40;21.35;;;19.35;;
18104;SDS011;9179;50.968;3.134;2023-09-08T06:08:07;19.98;;;18.17;;
18104;SDS011;9179;50.968;3.134;2023-09-08T06:10:34;20.98;;;19.17;;
18104;SDS011;9179;50.968;3.134;2023-09-08T06:13:01;21.48;;;19.27;;
18104;SDS011;9179;50.968;3.134;2023-09-08T06:15:28;19.75;;;17.98;;
18104;SDS011;9179;50.968;3.134;2023-09-08T06:17:54;20.35;;;18.02;;
18104;SDS011;9179;50.968;3.134;2023-09-08T06:20:23;21.10;;;17.67;;
18104;SDS011;9179;50.968;3.134;2023-09-08T06:22:51;18.73;;;16.75;;
18104;SDS011;9179;50.968;3.134;2023-09-08T06:25:18;18.05;;;16.30;;
18104;SDS011;9179;50.968;3.134;2023-09-08T06:27:45;17.23;;;15.68;;
18104;SDS011;9179;50.968;3.134;2023-09-08T06:30:12;17.88;;;16.05;;
18104;SDS011;9179;50.968;3.134;2023-09-08T06:32:41;14.90;;;13.57;;
18104;SDS011;9179;50.968;3.134;2023-09-08T06:35:08;14.02;;;12.63;;
18104;SDS011;9179;50.968;3.134;2023-09-08T06:37:36;13.95;;;12.82;;
18104;SDS011;9179;50.968;3.134;2023-09-08T06:40:04;15.20;;;13.57;;
18104;SDS011;9179;50.968;3.134;2023-09-08T06:42:32;13.43;;;12.05;;
18104;SDS011;9179;50.968;3.134;2023-09-08T06:44:59;13.57;;;12.38;;
18104;SDS011;9179;50.968;3.134;2023-09-08T06:47:26;13.65;;;12.35;;
18104;SDS011;9179;50.968;3.134;2023-09-08T06:49:53;13.57;;;12.48;;
18104;SDS011;9179;50.968;3.134;2023-09-08T06:52:20;13.07;;;11.88;;
18104;SDS011;9179;50.968;3.134;2023-09-08T06:54:48;12.32;;;11.32;;
18104;SDS011;9179;50.968;3.134;2023-09-08T06:57:17;13.43;;;12.23;;
18104;SDS011;9179;50.968;3.134;2023-09-08T06:59:46;12.23;;;11.23;;
18104;SDS011;9179;50.968;3.134;2023-09-08T07:02:12;13.80;;;12.50;;
18104;SDS011;9179;50.968;3.134;2023-09-08T07:04:39;13.90;;;12.20;;
18104;SDS011;9179;50.968;3.134;2023-09-08T07:07:06;12.73;;;11.65;;
18104;SDS011;9179;50.968;3.134;2023-09-08T07:09:34;12.70;;;11.68;;
18104;SDS011;9179;50.968;3.134;2023-09-08T07:12:03;12.60;;;11.35;;
18104;SDS011;9179;50.968;3.134;2023-09-08T07:14:31;17.30;;;12.88;;
18104;SDS011;9179;50.968;3.134;2023-09-08T07:16:58;12.88;;;11.77;;
18104;SDS011;9179;50.968;3.134;2023-09-08T07:19:25;13.90;;;12.63;;
18104;SDS011;9179;50.968;3.134;2023-09-08T07:21:52;14.20;;;13.10;;
18104;SDS011;9179;50.968;3.134;2023-09-08T07:24:19;15.18;;;13.65;;
18104;SDS011;9179;50.968;3.134;2023-09-08T07:26:46;13.85;;;12.27;;
18104;SDS011;9179;50.968;3.134;2023-09-08T07:29:14;13.02;;;11.93;;
18104;SDS011;9179;50.968;3.134;2023-09-08T07:31:41;12.43;;;11.52;;
18104;SDS011;9179;50.968;3.134;2023-09-08T07:34:08;13.82;;;12.35;;
18104;SDS011;9179;50.968;3.134;2023-09-08T07:36:35;14.40;;;13.02;;
18104;SDS011;9179;50.968;3.134;2023-09-08T07:39:03;13.25;;;12.15;;
18104;SDS011;9179;50.968;3.134;2023-09-08T07:41:30;13.20;;;11.98;;
18104;SDS011;9179;50.968;3.134;2023-09-08T07:43:57;13.07;;;12.00;;
18104;SDS011;9179;50.968;3.134;2023-09-08T07:46:25;13.68;;;12.48;;
18104;SDS011;9179;50.968;3.134;2023-09-08T07:48:52;13.75;;;12.45;;
18104;SDS011;9179;50.968;3.134;2023-09-08T07:51:19;12.38;;;11.38;;
18104;SDS011;9179;50.968;3.134;2023-09-08T07:53:46;15.70;;;12.55;;
18104;SDS011;9179;50.968;3.134;2023-09-08T07:56:13;13.38;;;12.15;;
18104;SDS011;9179;50.968;3.134;2023-09-08T07:58:39;13.95;;;12.80;;
18104;SDS011;9179;50.968;3.134;2023-09-08T08:01:06;13.15;;;11.88;;
18104;SDS011;9179;50.968;3.134;2023-09-08T08:03:35;12.88;;;11.80;;
18104;SDS011;9179;50.968;3.134;2023-09-08T08:06:02;13.00;;;11.80;;
18104;SDS011;9179;50.968;3.134;2023-09-08T08:08:30;12.80;;;11.50;;
18104;SDS011;9179;50.968;3.134;2023-09-08T08:10:57;12.50;;;11.50;;
18104;SDS011;9179;50.968;3.134;2023-09-08T08:13:23;11.95;;;11.05;;
18104;SDS011;9179;50.968;3.134;2023-09-08T08:15:50;13.25;;;11.63;;
18104;SDS011;9179;50.968;3.134;2023-09-08T08:18:17;13.30;;;12.20;;
18104;SDS011;9179;50.968;3.134;2023-09-08T08:20:45;12.73;;;11.65;;
18104;SDS011;9179;50.968;3.134;2023-09-08T08:23:12;12.43;;;11.35;;
18104;SDS011;9179;50.968;3.134;2023-09-08T08:25:39;13.75;;;12.55;;
18104;SDS011;9179;50.968;3.134;2023-09-08T08:28:06;13.40;;;12.25;;
18104;SDS011;9179;50.968;3.134;2023-09-08T08:30:33;13.38;;;12.27;;
18104;SDS011;9179;50.968;3.134;2023-09-08T08:33:00;13.48;;;12.27;;
18104;SDS011;9179;50.968;3.134;2023-09-08T08:35:29;14.80;;;13.32;;
18104;SDS011;9179;50.968;3.134;2023-09-08T08:37:58;14.95;;;13.52;;
18104;SDS011;9179;50.968;3.134;2023-09-08T08:40:25;14.77;;;13.32;;
18104;SDS011;9179;50.968;3.134;2023-09-08T08:42:54;14.30;;;13.00;;
18104;SDS011;9179;50.968;3.134;2023-09-08T08:45:22;15.02;;;13.73;;
18104;SDS011;9179;50.968;3.134;2023-09-08T08:47:50;14.80;;;13.25;;
18104;SDS011;9179;50.968;3.134;2023-09-08T08:50:18;14.40;;;13.20;;
18104;SDS011;9179;50.968;3.134;2023-09-08T08:52:45;14.27;;;13.07;;
18104;SDS011;9179;50.968;3.134;2023-09-08T08:55:14;15.90;;;14.65;;
18104;SDS011;9179;50.968;3.134;2023-09-08T08:57:41;16.17;;;14.68;;
18104;SDS011;9179;50.968;3.134;2023-09-08T09:00:10;16.02;;;14.55;;
18104;SDS011;9179;50.968;3.134;2023-09-08T09:02:49;16.58;;;15.07;;
18104;SDS011;9179;50.968;3.134;2023-09-08T09:05:17;16.48;;;14.82;;
18104;SDS011;9179;50.968;3.134;2023-09-08T09:07:45;16.05;;;14.75;;
18104;SDS011;9179;50.968;3.134;2023-09-08T09:10:12;14.27;;;13.18;;
18104;SDS011;9179;50.968;3.134;2023-09-08T09:12:43;16.52;;;15.02;;
18104;SDS011;9179;50.968;3.134;2023-09-08T09:15:10;15.38;;;13.90;;
18104;SDS011;9179;50.968;3.134;2023-09-08T09:17:38;16.80;;;15.35;;
18104;SDS011;9179;50.968;3.134;2023-09-08T09:20:11;17.80;;;16.30;;
18104;SDS011;9179;50.968;3.134;2023-09-08T09:22:40;16.80;;;15.27;;
18104;SDS011;9179;50.968;3.134;2023-09-08T09:25:08;17.08;;;15.68;;
18104;SDS011;9179;50.968;3.134;2023-09-08T09:27:37;16.75;;;15.25;;
18104;SDS011;9179;50.968;3.134;2023-09-08T09:30:06;16.90;;;15.50;;
18104;SDS011;9179;50.968;3.134;2023-09-08T09:32:34;14.27;;;12.98;;
18104;SDS011;9179;50.968;3.134;2023-09-08T09:35:01;13.80;;;12.65;;
18104;SDS011;9179;50.968;3.134;2023-09-08T09:37:29;14.30;;;13.23;;
18104;SDS011;9179;50.968;3.134;2023-09-08T09:39:59;15.25;;;14.00;;
18104;SDS011;9179;50.968;3.134;2023-09-08T09:42:32;15.23;;;14.10;;
18104;SDS011;9179;50.968;3.134;2023-09-08T09:48:06;15.20;;;13.90;;
18104;SDS011;9179;50.968;3.134;2023-09-08T09:50:34;15.57;;;14.23;;
18104;SDS011;9179;50.968;3.134;2023-09-08T09:53:07;13.80;;;12.70;;
18104;SDS011;9179;50.968;3.134;2023-09-08T09:55:36;14.77;;;13.55;;
18104;SDS011;9179;50.968;3.134;2023-09-08T09:58:03;13.68;;;12.55;;
18104;SDS011;9179;50.968;3.134;2023-09-08T10:00:33;13.80;;;12.43;;
18104;SDS011;9179;50.968;3.134;2023-09-08T10:03:05;12.77;;;11.68;;
18104;SDS011;9179;50.968;3.134;2023-09-08T10:05:33;13.27;;;12.07;;
18104;SDS011;9179;50.968;3.134;2023-09-08T10:08:00;12.48;;;11.48;;
18104;SDS011;9179;50.968;3.134;2023-09-08T10:10:27;12.18;;;11.05;;
18104;SDS011;9179;50.968;3.134;2023-09-08T10:13:01;12.05;;;11.05;;
18104;SDS011;9179;50.968;3.134;2023-09-08T10:15:29;12.60;;;11.60;;
18104;SDS011;9179;50.968;3.134;2023-09-08T10:17:58;12.45;;;11.35;;
18104;SDS011;9179;50.968;3.134;2023-09-08T10:20:28;12.98;;;12.00;;
18104;SDS011;9179;50.968;3.134;2023-09-08T10:22:59;6.75;;;6.25;;
18104;SDS011;9179;50.968;3.134;2023-09-08T10:25:34;9.45;;;8.65;;
18104;SDS011;9179;50.968;3.134;2023-09-08T10:28:04;11.68;;;10.63;;
18104;SDS011;9179;50.968;3.134;2023-09-08T10:30:33;11.38;;;10.27;;
18104;SDS011;9179;50.968;3.134;2023-09-08T10:33:02;10.65;;;9.75;;
18104;SDS011;9179;50.968;3.134;2023-09-08T10:35:30;14.40;;;12.50;;
18104;SDS011;9179;50.968;3.134;2023-09-08T10:40:48;13.02;;;12.02;;
18104;SDS011;9179;50.968;3.134;2023-09-08T10:43:15;11.30;;;10.23;;
18104;SDS011;9179;50.968;3.134;2023-09-08T10:45:43;12.98;;;11.68;;
18104;SDS011;9179;50.968;3.134;2023-09-08T10:48:12;10.32;;;9.52;;
18104;SDS011;9179;50.968;3.134;2023-09-08T10:50:41;11.25;;;10.10;;
18104;SDS011;9179;50.968;3.134;2023-09-08T10:53:15;10.43;;;9.48;;
18104;SDS011;9179;50.968;3.134;2023-09-08T10:55:43;10.75;;;9.65;;
18104;SDS011;9179;50.968;3.134;2023-09-08T10:58:28;11.40;;;10.40;;
18104;SDS011;9179;50.968;3.134;2023-09-08T11:00:59;11.68;;;10.68;;
18104;SDS011;9179;50.968;3.134;2023-09-08T11:03:41;10.23;;;9.52;;
18104;SDS011;9179;50.968;3.134;2023-09-08T11:06:10;8.98;;;8.18;;
18104;SDS011;9179;50.968;3.134;2023-09-08T11:08:37;11.35;;;10.45;;
18104;SDS011;9179;50.968;3.134;2023-09-08T11:11:07;9.27;;;8.50;;
18104;SDS011;9179;50.968;3.134;2023-09-08T11:13:36;8.07;;;7.47;;
18104;SDS011;9179;50.968;3.134;2023-09-08T11:16:04;8.02;;;7.15;;
18104;SDS011;9179;50.968;3.134;2023-09-08T11:18:33;11.00;;;8.95;;
18104;SDS011;9179;50.968;3.134;2023-09-08T11:21:01;10.68;;;9.68;;
18104;SDS011;9179;50.968;3.134;2023-09-08T11:23:29;10.45;;;9.55;;
18104;SDS011;9179;50.968;3.134;2023-09-08T11:25:56;21.23;;;13.18;;
18104;SDS011;9179;50.968;3.134;2023-09-08T11:28:23;10.35;;;9.40;;
18104;SDS011;9179;50.968;3.134;2023-09-08T11:30:52;7.70;;;7.00;;
18104;SDS011;9179;50.968;3.134;2023-09-08T11:33:21;5.95;;;5.38;;
18104;SDS011;9179;50.968;3.134;2023-09-08T11:35:52;8.85;;;8.05;;
18104;SDS011;9179;50.968;3.134;2023-09-08T11:38:24;8.18;;;7.28;;
18104;SDS011;9179;50.968;3.134;2023-09-08T11:40:52;8.45;;;7.70;;
18104;SDS011;9179;50.968;3.134;2023-09-08T11:43:19;7.85;;;7.05;;
18104;SDS011;9179;50.968;3.134;2023-09-08T11:45:48;10.25;;;9.35;;
18104;SDS011;9179;50.968;3.134;2023-09-08T11:48:15;7.78;;;7.03;;
18104;SDS011;9179;50.968;3.134;2023-09-08T11:50:42;7.07;;;6.38;;
18104;SDS011;9179;50.968;3.134;2023-09-08T11:53:10;7.78;;;7.18;;
18104;SDS011;9179;50.968;3.134;2023-09-08T11:55:37;8.60;;;7.80;;
18104;SDS011;9179;50.968;3.134;2023-09-08T11:58:04;8.50;;;7.80;;
18104;SDS011;9179;50.968;3.134;2023-09-08T12:00:32;9.43;;;8.52;;
18104;SDS011;9179;50.968;3.134;2023-09-08T12:03:09;8.30;;;7.40;;
18104;SDS011;9179;50.968;3.134;2023-09-08T12:05:36;8.73;;;7.82;;
18104;SDS011;9179;50.968;3.134;2023-09-08T12:08:04;9.30;;;8.43;;
18104;SDS011;9179;50.968;3.134;2023-09-08T12:10:38;9.63;;;8.73;;
18104;SDS011;9179;50.968;3.134;2023-09-08T12:13:06;9.25;;;8.50;;
18104;SDS011;9179;50.968;3.134;2023-09-08T12:15:34;7.88;;;7.07;;
18104;SDS011;9179;50.968;3.134;2023-09-08T12:18:03;9.48;;;8.63;;
18104;SDS011;9179;50.968;3.134;2023-09-08T12:20:32;8.13;;;7.32;;
18104;SDS011;9179;50.968;3.134;2023-09-08T12:22:59;8.90;;;8.10;;
18104;SDS011;9179;50.968;3.134;2023-09-08T12:25:27;9.45;;;8.57;;
18104;SDS011;9179;50.968;3.134;2023-09-08T12:27:57;9.45;;;8.05;;
18104;SDS011;9179;50.968;3.134;2023-09-08T12:30:26;14.38;;;9.40;;
18104;SDS011;9179;50.968;3.134;2023-09-08T12:32:57;11.30;;;7.85;;
18104;SDS011;9179;50.968;3.134;2023-09-08T12:35:26;7.40;;;6.72;;
18104;SDS011;9179;50.968;3.134;2023-09-08T12:37:57;8.52;;;7.63;;
18104;SDS011;9179;50.968;3.134;2023-09-08T12:40:25;7.55;;;6.78;;
18104;SDS011;9179;50.968;3.134;2023-09-08T12:42:53;7.20;;;6.63;;
18104;SDS011;9179;50.968;3.134;2023-09-08T12:45:22;7.05;;;6.35;;
18104;SDS011;9179;50.968;3.134;2023-09-08T12:47:49;7.60;;;6.90;;
18104;SDS011;9179;50.968;3.134;2023-09-08T12:50:16;8.95;;;8.07;;
18104;SDS011;9179;50.968;3.134;2023-09-08T12:52:43;9.18;;;8.27;;
18104;SDS011;9179;50.968;3.134;2023-09-08T12:55:10;10.75;;;9.68;;
18104;SDS011;9179;50.968;3.134;2023-09-08T12:57:37;9.65;;;8.88;;
18104;SDS011;9179;50.968;3.134;2023-09-08T13:00:04;10.27;;;8.68;;
18104;SDS011;9179;50.968;3.134;2023-09-08T13:02:33;9.55;;;8.65;;
18104;SDS011;9179;50.968;3.134;2023-09-08T13:05:00;10.57;;;9.55;;
18104;SDS011;9179;50.968;3.134;2023-09-08T13:07:27;9.60;;;8.80;;
18104;SDS011;9179;50.968;3.134;2023-09-08T13:09:54;10.35;;;9.18;;
18104;SDS011;9179;50.968;3.134;2023-09-08T13:12:21;11.38;;;10.27;;
18104;SDS011;9179;50.968;3.134;2023-09-08T13:14:48;9.27;;;8.43;;
18104;SDS011;9179;50.968;3.134;2023-09-08T13:17:15;10.57;;;9.57;;
18104;SDS011;9179;50.968;3.134;2023-09-08T13:19:43;9.93;;;9.02;;
18104;SDS011;9179;50.968;3.134;2023-09-08T13:22:11;11.07;;;10.15;;
18104;SDS011;9179;50.968;3.134;2023-09-08T13:24:39;9.50;;;8.70;;
18104;SDS011;9179;50.968;3.134;2023-09-08T13:27:06;9.10;;;8.32;;
18104;SDS011;9179;50.968;3.134;2023-09-08T13:29:32;8.70;;;7.90;;
18104;SDS011;9179;50.968;3.134;2023-09-08T13:31:59;8.73;;;7.82;;
18104;SDS011;9179;50.968;3.134;2023-09-08T13:34:26;9.00;;;8.32;;
18104;SDS011;9179;50.968;3.134;2023-09-08T13:36:54;9.57;;;8.77;;
18104;SDS011;9179;50.968;3.134;2023-09-08T13:39:21;9.23;;;8.38;;
18104;SDS011;9179;50.968;3.134;2023-09-08T13:41:49;9.18;;;8.43;;
18104;SDS011;9179;50.968;3.134;2023-09-08T13:44:17;8.43;;;7.53;;
18104;SDS011;9179;50.968;3.134;2023-09-08T13:46:45;9.23;;;8.32;;
18104;SDS011;9179;50.968;3.134;2023-09-08T13:49:12;8.50;;;7.80;;
18104;SDS011;9179;50.968;3.134;2023-09-08T13:51:39;10.85;;;8.85;;
18104;SDS011;9179;50.968;3.134;2023-09-08T13:54:07;8.02;;;7.22;;
18104;SDS011;9179;50.968;3.134;2023-09-08T13:56:37;9.70;;;8.90;;
18104;SDS011;9179;50.968;3.134;2023-09-08T13:59:04;10.15;;;9.15;;
18104;SDS011;9179;50.968;3.134;2023-09-08T14:01:32;9.68;;;8.85;;
18104;SDS011;9179;50.968;3.134;2023-09-08T14:03:59;9.57;;;8.80;;
18104;SDS011;9179;50.968;3.134;2023-09-08T14:06:26;9.88;;;9.07;;
18104;SDS011;9179;50.968;3.134;2023-09-08T14:08:54;8.77;;;7.88;;
18104;SDS011;9179;50.968;3.134;2023-09-08T14:11:23;8.70;;;7.90;;
18104;SDS011;9179;50.968;3.134;2023-09-08T14:13:51;8.98;;;8.27;;
18104;SDS011;9179;50.968;3.134;2023-09-08T14:16:18;9.48;;;8.77;;
18104;SDS011;9179;50.968;3.134;2023-09-08T14:18:45;9.25;;;8.07;;
18104;SDS011;9179;50.968;3.134;2023-09-08T14:21:14;8.40;;;7.80;;
18104;SDS011;9179;50.968;3.134;2023-09-08T14:23:47;10.88;;;9.88;;
18104;SDS011;9179;50.968;3.134;2023-09-08T14:26:14;10.07;;;9.18;;
18104;SDS011;9179;50.968;3.134;2023-09-08T14:28:43;8.20;;;7.40;;
18104;SDS011;9179;50.968;3.134;2023-09-08T14:31:16;9.68;;;8.90;;
18104;SDS011;9179;50.968;3.134;2023-09-08T14:33:55;9.20;;;7.70;;
18104;SDS011;9179;50.968;3.134;2023-09-08T14:36:22;10.40;;;9.30;;
18104;SDS011;9179;50.968;3.134;2023-09-08T14:38:57;8.90;;;8.15;;
18104;SDS011;9179;50.968;3.134;2023-09-08T14:41:58;7.82;;;7.22;;
18104;SDS011;9179;50.968;3.134;2023-09-08T14:47:43;8.60;;;7.90;;
18104;SDS011;9179;50.968;3.134;2023-09-08T14:50:33;9.40;;;8.60;;
18104;SDS011;9179;50.968;3.134;2023-09-08T14:56:20;8.20;;;7.55;;
18104;SDS011;9179;50.968;3.134;2023-09-08T14:59:09;8.20;;;7.40;;
18104;SDS011;9179;50.968;3.134;2023-09-08T15:01:45;9.02;;;8.13;;